sensor_id;sensor_type;location;lat;lon;timestamp;temperature;humidity
7218;DHT22;3650;53.580;10.094;2023-04-06T00:00:09;5.90;53.20
7218;DHT22;3650;53.580;10.094;2023-04-06T00:02:37;5.90;52.00
7218;DHT22;3650;53.580;10.094;2023-04-06T00:05:04;5.80;51.90
7218;DHT22;3650;53.580;10.094;2023-04-06T00:07:31;5.80;52.40
7218;DHT22;3650;53.580;10.094;2023-04-06T00:10:00;5.80;52.80
7218;DHT22;3650;53.580;10.094;2023-04-06T00:12:26;5.80;53.20
7218;DHT22;3650;53.580;10.094;2023-04-06T00:14:53;5.70;53.10
7218;DHT22;3650;53.580;10.094;2023-04-06T00:17:20;5.50;53.30
7218;DHT22;3650;53.580;10.094;2023-04-06T00:19:47;5.70;53.80
7218;DHT22;3650;53.580;10.094;2023-04-06T00:22:14;5.60;54.30
7218;DHT22;3650;53.580;10.094;2023-04-06T00:24:40;5.60;54.80
7218;DHT22;3650;53.580;10.094;2023-04-06T00:27:09;5.60;54.70
7218;DHT22;3650;53.580;10.094;2023-04-06T00:29:35;5.60;55.20
7218;DHT22;3650;53.580;10.094;2023-04-06T00:32:02;5.50;55.80
7218;DHT22;3650;53.580;10.094;2023-04-06T00:34:29;5.50;55.70
7218;DHT22;3650;53.580;10.094;2023-04-06T00:36:56;5.50;56.10
7218;DHT22;3650;53.580;10.094;2023-04-06T00:39:22;5.50;55.90
7218;DHT22;3650;53.580;10.094;2023-04-06T00:41:51;5.40;55.70
7218;DHT22;3650;53.580;10.094;2023-04-06T00:44:20;5.30;57.50
7218;DHT22;3650;53.580;10.094;2023-04-06T00:46:47;5.30;57.40
7218;DHT22;3650;53.580;10.094;2023-04-06T00:49:14;5.30;58.30
7218;DHT22;3650;53.580;10.094;2023-04-06T00:51:40;5.30;58.60
7218;DHT22;3650;53.580;10.094;2023-04-06T00:54:07;5.20;58.20
7218;DHT22;3650;53.580;10.094;2023-04-06T00:56:35;5.20;58.90
7218;DHT22;3650;53.580;10.094;2023-04-06T00:59:02;5.20;59.20
7218;DHT22;3650;53.580;10.094;2023-04-06T01:01:30;5.20;59.10
7218;DHT22;3650;53.580;10.094;2023-04-06T01:03:58;5.20;59.30
7218;DHT22;3650;53.580;10.094;2023-04-06T01:06:25;5.20;58.80
7218;DHT22;3650;53.580;10.094;2023-04-06T01:08:51;5.20;59.30
7218;DHT22;3650;53.580;10.094;2023-04-06T01:11:18;5.20;59.30
7218;DHT22;3650;53.580;10.094;2023-04-06T01:13:45;5.20;59.30
7218;DHT22;3650;53.580;10.094;2023-04-06T01:16:12;5.20;59.30
7218;DHT22;3650;53.580;10.094;2023-04-06T01:18:40;5.20;59.30
7218;DHT22;3650;53.580;10.094;2023-04-06T01:21:08;5.20;59.30
7218;DHT22;3650;53.580;10.094;2023-04-06T01:23:42;5.20;59.30
7218;DHT22;3650;53.580;10.094;2023-04-06T01:26:09;5.10;59.20
7218;DHT22;3650;53.580;10.094;2023-04-06T01:28:36;5.10;60.30
7218;DHT22;3650;53.580;10.094;2023-04-06T01:31:04;5.10;60.40
7218;DHT22;3650;53.580;10.094;2023-04-06T01:33:31;5.10;60.40
7218;DHT22;3650;53.580;10.094;2023-04-06T01:35:57;5.10;60.30
7218;DHT22;3650;53.580;10.094;2023-04-06T01:38:25;5.00;60.40
7218;DHT22;3650;53.580;10.094;2023-04-06T01:40:53;5.00;60.80
7218;DHT22;3650;53.580;10.094;2023-04-06T01:43:20;5.00;60.20
7218;DHT22;3650;53.580;10.094;2023-04-06T01:45:47;5.00;60.40
7218;DHT22;3650;53.580;10.094;2023-04-06T01:48:14;5.00;61.00
7218;DHT22;3650;53.580;10.094;2023-04-06T01:50:40;4.90;61.40
7218;DHT22;3650;53.580;10.094;2023-04-06T01:53:07;4.90;61.40
7218;DHT22;3650;53.580;10.094;2023-04-06T01:55:34;4.90;61.70
7218;DHT22;3650;53.580;10.094;2023-04-06T01:58:02;4.90;62.30
7218;DHT22;3650;53.580;10.094;2023-04-06T02:00:29;4.90;62.40
7218;DHT22;3650;53.580;10.094;2023-04-06T02:02:56;4.80;61.00
7218;DHT22;3650;53.580;10.094;2023-04-06T02:05:22;4.70;60.00
7218;DHT22;3650;53.580;10.094;2023-04-06T02:07:49;4.60;59.70
7218;DHT22;3650;53.580;10.094;2023-04-06T02:10:17;4.50;61.00
7218;DHT22;3650;53.580;10.094;2023-04-06T02:12:44;4.40;63.40
7218;DHT22;3650;53.580;10.094;2023-04-06T02:15:12;4.40;65.20
7218;DHT22;3650;53.580;10.094;2023-04-06T02:17:39;4.40;66.10
7218;DHT22;3650;53.580;10.094;2023-04-06T02:20:06;4.50;66.30
7218;DHT22;3650;53.580;10.094;2023-04-06T02:22:34;4.50;66.10
7218;DHT22;3650;53.580;10.094;2023-04-06T02:25:01;4.50;65.80
7218;DHT22;3650;53.580;10.094;2023-04-06T02:27:28;4.50;66.30
7218;DHT22;3650;53.580;10.094;2023-04-06T02:29:55;4.50;66.70
7218;DHT22;3650;53.580;10.094;2023-04-06T02:32:23;4.50;66.90
7218;DHT22;3650;53.580;10.094;2023-04-06T02:34:50;4.50;66.80
7218;DHT22;3650;53.580;10.094;2023-04-06T02:37:16;4.50;66.70
7218;DHT22;3650;53.580;10.094;2023-04-06T02:39:43;4.50;66.00
7218;DHT22;3650;53.580;10.094;2023-04-06T02:42:10;4.50;66.30
7218;DHT22;3650;53.580;10.094;2023-04-06T02:44:37;4.50;66.20
7218;DHT22;3650;53.580;10.094;2023-04-06T02:47:04;4.60;65.80
7218;DHT22;3650;53.580;10.094;2023-04-06T02:49:32;4.60;66.20
7218;DHT22;3650;53.580;10.094;2023-04-06T02:51:59;4.60;65.40
7218;DHT22;3650;53.580;10.094;2023-04-06T02:54:26;4.60;65.60
7218;DHT22;3650;53.580;10.094;2023-04-06T02:56:52;4.60;65.70
7218;DHT22;3650;53.580;10.094;2023-04-06T02:59:19;4.60;65.70
7218;DHT22;3650;53.580;10.094;2023-04-06T03:01:46;4.60;65.90
7218;DHT22;3650;53.580;10.094;2023-04-06T03:04:13;4.60;65.50
7218;DHT22;3650;53.580;10.094;2023-04-06T03:06:41;4.60;65.60
7218;DHT22;3650;53.580;10.094;2023-04-06T03:09:08;4.60;65.80
7218;DHT22;3650;53.580;10.094;2023-04-06T03:11:35;4.50;64.90
7218;DHT22;3650;53.580;10.094;2023-04-06T03:14:01;4.50;65.00
7218;DHT22;3650;53.580;10.094;2023-04-06T03:16:28;4.40;66.50
7218;DHT22;3650;53.580;10.094;2023-04-06T03:18:55;4.40;66.10
7218;DHT22;3650;53.580;10.094;2023-04-06T03:21:22;4.40;66.20
7218;DHT22;3650;53.580;10.094;2023-04-06T03:23:50;4.40;66.80
7218;DHT22;3650;53.580;10.094;2023-04-06T03:26:16;4.40;67.70
7218;DHT22;3650;53.580;10.094;2023-04-06T03:28:43;4.30;67.40
7218;DHT22;3650;53.580;10.094;2023-04-06T03:31:10;4.30;69.20
7218;DHT22;3650;53.580;10.094;2023-04-06T03:33:37;4.30;67.80
7218;DHT22;3650;53.580;10.094;2023-04-06T03:36:05;4.30;68.00
7218;DHT22;3650;53.580;10.094;2023-04-06T03:38:31;4.30;68.00
7218;DHT22;3650;53.580;10.094;2023-04-06T03:40:59;4.30;68.40
7218;DHT22;3650;53.580;10.094;2023-04-06T03:43:26;4.30;68.40
7218;DHT22;3650;53.580;10.094;2023-04-06T03:45:53;4.30;68.80
7218;DHT22;3650;53.580;10.094;2023-04-06T03:48:20;4.30;68.30
7218;DHT22;3650;53.580;10.094;2023-04-06T03:50:46;4.30;68.70
7218;DHT22;3650;53.580;10.094;2023-04-06T03:53:13;4.30;68.70
7218;DHT22;3650;53.580;10.094;2023-04-06T03:55:40;4.20;67.40
7218;DHT22;3650;53.580;10.094;2023-04-06T03:58:08;4.20;68.50
7218;DHT22;3650;53.580;10.094;2023-04-06T04:00:35;4.10;67.50
7218;DHT22;3650;53.580;10.094;2023-04-06T04:03:02;4.10;69.20
7218;DHT22;3650;53.580;10.094;2023-04-06T04:05:29;4.10;70.10
7218;DHT22;3650;53.580;10.094;2023-04-06T04:07:56;4.10;70.10
7218;DHT22;3650;53.580;10.094;2023-04-06T04:10:22;4.10;70.20
7218;DHT22;3650;53.580;10.094;2023-04-06T04:12:49;4.00;70.00
7218;DHT22;3650;53.580;10.094;2023-04-06T04:15:17;4.10;70.10
7218;DHT22;3650;53.580;10.094;2023-04-06T04:17:44;4.10;70.10
7218;DHT22;3650;53.580;10.094;2023-04-06T04:20:12;4.10;70.10
7218;DHT22;3650;53.580;10.094;2023-04-06T04:22:40;4.10;70.10
7218;DHT22;3650;53.580;10.094;2023-04-06T04:25:08;4.10;70.10
7218;DHT22;3650;53.580;10.094;2023-04-06T04:27:35;4.00;70.00
7218;DHT22;3650;53.580;10.094;2023-04-06T04:30:02;4.00;68.40
7218;DHT22;3650;53.580;10.094;2023-04-06T04:32:30;4.00;70.00
7218;DHT22;3650;53.580;10.094;2023-04-06T04:34:57;4.00;70.30
7218;DHT22;3650;53.580;10.094;2023-04-06T04:37:23;4.00;71.00
7218;DHT22;3650;53.580;10.094;2023-04-06T04:39:50;4.00;71.30
7218;DHT22;3650;53.580;10.094;2023-04-06T04:42:17;4.00;71.00
7218;DHT22;3650;53.580;10.094;2023-04-06T04:44:43;4.00;70.10
7218;DHT22;3650;53.580;10.094;2023-04-06T04:47:10;3.90;70.00
7218;DHT22;3650;53.580;10.094;2023-04-06T04:49:38;3.90;70.00
7218;DHT22;3650;53.580;10.094;2023-04-06T04:52:05;3.90;70.30
7218;DHT22;3650;53.580;10.094;2023-04-06T04:54:32;3.90;71.60
7218;DHT22;3650;53.580;10.094;2023-04-06T04:56:59;3.80;71.50
7218;DHT22;3650;53.580;10.094;2023-04-06T04:59:25;3.80;72.70
7218;DHT22;3650;53.580;10.094;2023-04-06T05:01:54;3.80;72.00
7218;DHT22;3650;53.580;10.094;2023-04-06T05:04:21;3.90;72.60
7218;DHT22;3650;53.580;10.094;2023-04-06T05:06:49;3.90;72.80
7218;DHT22;3650;53.580;10.094;2023-04-06T05:09:16;3.90;73.00
7218;DHT22;3650;53.580;10.094;2023-04-06T05:11:43;3.90;72.80
7218;DHT22;3650;53.580;10.094;2023-04-06T05:14:10;3.90;72.40
7218;DHT22;3650;53.580;10.094;2023-04-06T05:16:37;3.90;72.40
7218;DHT22;3650;53.580;10.094;2023-04-06T05:19:03;3.90;72.50
7218;DHT22;3650;53.580;10.094;2023-04-06T05:21:30;3.80;72.40
7218;DHT22;3650;53.580;10.094;2023-04-06T05:23:58;3.90;72.90
7218;DHT22;3650;53.580;10.094;2023-04-06T05:26:27;3.90;73.30
7218;DHT22;3650;53.580;10.094;2023-04-06T05:28:54;3.90;73.00
7218;DHT22;3650;53.580;10.094;2023-04-06T05:31:21;3.90;73.70
7218;DHT22;3650;53.580;10.094;2023-04-06T05:33:48;3.80;73.10
7218;DHT22;3650;53.580;10.094;2023-04-06T05:36:15;3.80;73.20
7218;DHT22;3650;53.580;10.094;2023-04-06T05:38:41;3.80;74.30
7218;DHT22;3650;53.580;10.094;2023-04-06T05:41:10;3.80;75.10
7218;DHT22;3650;53.580;10.094;2023-04-06T05:43:37;3.80;74.90
7218;DHT22;3650;53.580;10.094;2023-04-06T05:46:04;3.80;75.50
7218;DHT22;3650;53.580;10.094;2023-04-06T05:48:31;3.80;75.50
7218;DHT22;3650;53.580;10.094;2023-04-06T05:50:57;3.80;75.80
7218;DHT22;3650;53.580;10.094;2023-04-06T05:53:25;3.70;75.40
7218;DHT22;3650;53.580;10.094;2023-04-06T05:55:54;3.70;76.40
7218;DHT22;3650;53.580;10.094;2023-04-06T05:58:22;3.70;77.70
7218;DHT22;3650;53.580;10.094;2023-04-06T06:00:49;3.80;79.00
7218;DHT22;3650;53.580;10.094;2023-04-06T06:03:16;3.80;80.00
7218;DHT22;3650;53.580;10.094;2023-04-06T06:05:42;3.90;80.50
7218;DHT22;3650;53.580;10.094;2023-04-06T06:08:09;3.90;81.10
7218;DHT22;3650;53.580;10.094;2023-04-06T06:10:38;3.90;81.10
7218;DHT22;3650;53.580;10.094;2023-04-06T06:13:05;3.90;80.50
7218;DHT22;3650;53.580;10.094;2023-04-06T06:15:33;4.00;80.00
7218;DHT22;3650;53.580;10.094;2023-04-06T06:18:00;3.90;79.90
7218;DHT22;3650;53.580;10.094;2023-04-06T06:20:27;3.90;80.70
7218;DHT22;3650;53.580;10.094;2023-04-06T06:22:53;4.00;81.20
7218;DHT22;3650;53.580;10.094;2023-04-06T06:25:21;4.00;81.20
7218;DHT22;3650;53.580;10.094;2023-04-06T06:27:48;4.10;81.20
7218;DHT22;3650;53.580;10.094;2023-04-06T06:30:15;4.10;82.00
7218;DHT22;3650;53.580;10.094;2023-04-06T06:32:43;4.10;82.40
7218;DHT22;3650;53.580;10.094;2023-04-06T06:35:10;4.20;81.90
7218;DHT22;3650;53.580;10.094;2023-04-06T06:37:37;4.20;81.30
7218;DHT22;3650;53.580;10.094;2023-04-06T06:40:05;4.20;80.90
7218;DHT22;3650;53.580;10.094;2023-04-06T06:42:32;4.30;80.90
7218;DHT22;3650;53.580;10.094;2023-04-06T06:44:59;4.30;80.90
7218;DHT22;3650;53.580;10.094;2023-04-06T06:47:26;4.40;81.10
7218;DHT22;3650;53.580;10.094;2023-04-06T06:49:54;4.50;81.00
7218;DHT22;3650;53.580;10.094;2023-04-06T06:52:21;4.50;80.70
7218;DHT22;3650;53.580;10.094;2023-04-06T06:54:49;4.50;79.80
7218;DHT22;3650;53.580;10.094;2023-04-06T06:57:16;4.60;78.70
7218;DHT22;3650;53.580;10.094;2023-04-06T06:59:42;4.70;78.10
7218;DHT22;3650;53.580;10.094;2023-04-06T07:02:09;4.80;77.10
7218;DHT22;3650;53.580;10.094;2023-04-06T07:04:36;4.80;76.00
7218;DHT22;3650;53.580;10.094;2023-04-06T07:07:04;4.90;75.00
7218;DHT22;3650;53.580;10.094;2023-04-06T07:09:31;5.00;74.70
7218;DHT22;3650;53.580;10.094;2023-04-06T07:11:58;5.00;73.60
7218;DHT22;3650;53.580;10.094;2023-04-06T07:14:26;5.00;73.20
7218;DHT22;3650;53.580;10.094;2023-04-06T07:16:53;5.10;73.00
7218;DHT22;3650;53.580;10.094;2023-04-06T07:19:19;5.20;73.20
7218;DHT22;3650;53.580;10.094;2023-04-06T07:21:46;5.20;73.10
7218;DHT22;3650;53.580;10.094;2023-04-06T07:24:15;5.30;72.50
7218;DHT22;3650;53.580;10.094;2023-04-06T07:26:42;5.30;71.60
7218;DHT22;3650;53.580;10.094;2023-04-06T07:29:09;5.40;71.20
7218;DHT22;3650;53.580;10.094;2023-04-06T07:31:36;5.50;71.30
7218;DHT22;3650;53.580;10.094;2023-04-06T07:34:03;5.60;71.30
7218;DHT22;3650;53.580;10.094;2023-04-06T07:36:29;5.70;70.60
7218;DHT22;3650;53.580;10.094;2023-04-06T07:38:56;5.70;70.00
7218;DHT22;3650;53.580;10.094;2023-04-06T07:41:24;5.80;69.00
7218;DHT22;3650;53.580;10.094;2023-04-06T07:43:51;5.90;67.50
7218;DHT22;3650;53.580;10.094;2023-04-06T07:46:18;5.90;64.80
7218;DHT22;3650;53.580;10.094;2023-04-06T07:48:45;6.00;63.00
7218;DHT22;3650;53.580;10.094;2023-04-06T07:51:11;6.10;61.80
7218;DHT22;3650;53.580;10.094;2023-04-06T07:53:39;6.20;62.20
7218;DHT22;3650;53.580;10.094;2023-04-06T07:56:06;6.30;62.10
7218;DHT22;3650;53.580;10.094;2023-04-06T07:58:34;6.30;60.10
7218;DHT22;3650;53.580;10.094;2023-04-06T08:01:01;6.40;58.90
7218;DHT22;3650;53.580;10.094;2023-04-06T08:03:28;6.50;58.50
7218;DHT22;3650;53.580;10.094;2023-04-06T08:05:55;6.60;53.80
7218;DHT22;3650;53.580;10.094;2023-04-06T08:08:22;6.60;53.00
7218;DHT22;3650;53.580;10.094;2023-04-06T08:10:49;6.70;47.80
7218;DHT22;3650;53.580;10.094;2023-04-06T08:13:16;6.80;47.90
7218;DHT22;3650;53.580;10.094;2023-04-06T08:15:44;6.90;45.60
7218;DHT22;3650;53.580;10.094;2023-04-06T08:18:11;7.00;44.80
7218;DHT22;3650;53.580;10.094;2023-04-06T08:20:38;7.00;46.10
7218;DHT22;3650;53.580;10.094;2023-04-06T08:23:05;7.10;41.50
7218;DHT22;3650;53.580;10.094;2023-04-06T08:25:35;7.10;42.00
7218;DHT22;3650;53.580;10.094;2023-04-06T08:28:02;7.20;42.90
7218;DHT22;3650;53.580;10.094;2023-04-06T08:30:31;7.30;39.60
7218;DHT22;3650;53.580;10.094;2023-04-06T08:32:59;7.40;38.60
7218;DHT22;3650;53.580;10.094;2023-04-06T08:35:26;7.50;40.60
7218;DHT22;3650;53.580;10.094;2023-04-06T08:37:53;7.50;40.20
7218;DHT22;3650;53.580;10.094;2023-04-06T08:40:20;7.60;39.60
7218;DHT22;3650;53.580;10.094;2023-04-06T08:42:50;7.60;36.20
7218;DHT22;3650;53.580;10.094;2023-04-06T08:45:18;7.70;35.70
7218;DHT22;3650;53.580;10.094;2023-04-06T08:47:46;7.80;36.30
7218;DHT22;3650;53.580;10.094;2023-04-06T08:50:16;7.80;35.00
7218;DHT22;3650;53.580;10.094;2023-04-06T08:52:44;7.90;36.50
7218;DHT22;3650;53.580;10.094;2023-04-06T08:55:12;7.90;36.40
7218;DHT22;3650;53.580;10.094;2023-04-06T08:57:40;8.00;34.60
7218;DHT22;3650;53.580;10.094;2023-04-06T09:00:09;8.10;34.00
7218;DHT22;3650;53.580;10.094;2023-04-06T09:02:38;8.10;33.40
7218;DHT22;3650;53.580;10.094;2023-04-06T09:05:07;8.20;33.10
7218;DHT22;3650;53.580;10.094;2023-04-06T09:07:36;8.20;33.40
7218;DHT22;3650;53.580;10.094;2023-04-06T09:10:04;8.30;33.20
7218;DHT22;3650;53.580;10.094;2023-04-06T09:12:32;8.40;32.50
7218;DHT22;3650;53.580;10.094;2023-04-06T09:15:00;8.40;32.50
7218;DHT22;3650;53.580;10.094;2023-04-06T09:17:28;8.50;31.90
7218;DHT22;3650;53.580;10.094;2023-04-06T09:19:58;8.60;29.60
7218;DHT22;3650;53.580;10.094;2023-04-06T09:22:34;8.60;30.90
7218;DHT22;3650;53.580;10.094;2023-04-06T09:25:03;8.60;32.10
7218;DHT22;3650;53.580;10.094;2023-04-06T09:27:31;8.70;31.50
7218;DHT22;3650;53.580;10.094;2023-04-06T09:30:04;8.70;30.30
7218;DHT22;3650;53.580;10.094;2023-04-06T09:32:31;8.80;30.70
7218;DHT22;3650;53.580;10.094;2023-04-06T09:35:06;8.80;30.80
7218;DHT22;3650;53.580;10.094;2023-04-06T09:37:33;8.90;29.60
7218;DHT22;3650;53.580;10.094;2023-04-06T09:40:04;9.00;28.60
7218;DHT22;3650;53.580;10.094;2023-04-06T09:42:33;9.00;29.80
7218;DHT22;3650;53.580;10.094;2023-04-06T09:45:00;9.10;30.50
7218;DHT22;3650;53.580;10.094;2023-04-06T09:47:27;9.10;30.20
7218;DHT22;3650;53.580;10.094;2023-04-06T09:49:56;9.20;30.30
7218;DHT22;3650;53.580;10.094;2023-04-06T09:52:27;9.20;30.20
7218;DHT22;3650;53.580;10.094;2023-04-06T09:54:56;9.30;30.10
7218;DHT22;3650;53.580;10.094;2023-04-06T09:57:32;9.30;29.40
7218;DHT22;3650;53.580;10.094;2023-04-06T10:00:02;9.40;29.90
7218;DHT22;3650;53.580;10.094;2023-04-06T10:02:39;9.40;31.40
7218;DHT22;3650;53.580;10.094;2023-04-06T10:05:12;9.40;31.20
7218;DHT22;3650;53.580;10.094;2023-04-06T10:07:40;9.50;30.30
7218;DHT22;3650;53.580;10.094;2023-04-06T10:10:09;9.50;30.10
7218;DHT22;3650;53.580;10.094;2023-04-06T10:12:38;9.60;29.30
7218;DHT22;3650;53.580;10.094;2023-04-06T10:15:07;9.60;30.00
7218;DHT22;3650;53.580;10.094;2023-04-06T10:17:34;9.60;30.00
7218;DHT22;3650;53.580;10.094;2023-04-06T10:20:05;9.70;29.10
7218;DHT22;3650;53.580;10.094;2023-04-06T10:22:38;9.80;27.50
7218;DHT22;3650;53.580;10.094;2023-04-06T10:25:08;9.80;26.40
7218;DHT22;3650;53.580;10.094;2023-04-06T10:27:35;9.90;25.30
7218;DHT22;3650;53.580;10.094;2023-04-06T10:30:04;9.90;26.40
7218;DHT22;3650;53.580;10.094;2023-04-06T10:32:36;10.00;24.80
7218;DHT22;3650;53.580;10.094;2023-04-06T10:35:07;10.00;24.20
7218;DHT22;3650;53.580;10.094;2023-04-06T10:37:47;10.00;24.70
7218;DHT22;3650;53.580;10.094;2023-04-06T10:40:24;10.10;25.30
7218;DHT22;3650;53.580;10.094;2023-04-06T10:42:52;10.10;25.30
7218;DHT22;3650;53.580;10.094;2023-04-06T10:45:22;10.10;24.60
7218;DHT22;3650;53.580;10.094;2023-04-06T10:47:50;10.20;24.80
7218;DHT22;3650;53.580;10.094;2023-04-06T10:50:18;10.30;23.50
7218;DHT22;3650;53.580;10.094;2023-04-06T10:52:46;10.30;24.30
7218;DHT22;3650;53.580;10.094;2023-04-06T10:55:13;10.30;24.50
7218;DHT22;3650;53.580;10.094;2023-04-06T10:57:40;10.40;25.50
7218;DHT22;3650;53.580;10.094;2023-04-06T11:00:08;10.40;24.90
7218;DHT22;3650;53.580;10.094;2023-04-06T11:02:37;10.50;25.60
7218;DHT22;3650;53.580;10.094;2023-04-06T11:05:04;10.50;25.60
7218;DHT22;3650;53.580;10.094;2023-04-06T11:07:32;10.50;25.60
7218;DHT22;3650;53.580;10.094;2023-04-06T11:09:58;10.60;24.90
7218;DHT22;3650;53.580;10.094;2023-04-06T11:12:27;10.60;25.60
7218;DHT22;3650;53.580;10.094;2023-04-06T11:14:56;10.70;26.10
7218;DHT22;3650;53.580;10.094;2023-04-06T11:17:28;10.70;25.70
7218;DHT22;3650;53.580;10.094;2023-04-06T11:19:57;10.80;24.00
7218;DHT22;3650;53.580;10.094;2023-04-06T11:22:24;10.90;25.70
7218;DHT22;3650;53.580;10.094;2023-04-06T11:24:51;11.00;23.70
7218;DHT22;3650;53.580;10.094;2023-04-06T11:27:18;11.10;23.70
7218;DHT22;3650;53.580;10.094;2023-04-06T11:29:46;11.00;23.70
7218;DHT22;3650;53.580;10.094;2023-04-06T11:32:20;11.10;23.80
7218;DHT22;3650;53.580;10.094;2023-04-06T11:34:48;11.10;24.90
7218;DHT22;3650;53.580;10.094;2023-04-06T11:37:16;11.20;26.10
7218;DHT22;3650;53.580;10.094;2023-04-06T11:39:47;11.30;24.30
7218;DHT22;3650;53.580;10.094;2023-04-06T11:42:21;11.30;23.50
7218;DHT22;3650;53.580;10.094;2023-04-06T11:44:50;11.40;22.50
7218;DHT22;3650;53.580;10.094;2023-04-06T11:47:18;11.50;22.60
7218;DHT22;3650;53.580;10.094;2023-04-06T11:49:45;11.50;22.40
7218;DHT22;3650;53.580;10.094;2023-04-06T11:52:19;11.60;23.00
7218;DHT22;3650;53.580;10.094;2023-04-06T11:54:47;11.60;22.80
7218;DHT22;3650;53.580;10.094;2023-04-06T11:57:14;11.70;23.20
7218;DHT22;3650;53.580;10.094;2023-04-06T11:59:42;11.70;22.10
7218;DHT22;3650;53.580;10.094;2023-04-06T12:02:09;11.80;23.30
7218;DHT22;3650;53.580;10.094;2023-04-06T12:04:36;11.80;22.40
7218;DHT22;3650;53.580;10.094;2023-04-06T12:07:03;11.90;21.90
7218;DHT22;3650;53.580;10.094;2023-04-06T12:09:31;11.90;21.00
7218;DHT22;3650;53.580;10.094;2023-04-06T12:11:59;12.00;22.20
7218;DHT22;3650;53.580;10.094;2023-04-06T12:14:26;12.00;22.80
7218;DHT22;3650;53.580;10.094;2023-04-06T12:16:53;12.00;22.50
7218;DHT22;3650;53.580;10.094;2023-04-06T12:19:20;12.10;21.00
7218;DHT22;3650;53.580;10.094;2023-04-06T12:21:51;12.20;22.00
7218;DHT22;3650;53.580;10.094;2023-04-06T12:24:18;12.20;21.50
7218;DHT22;3650;53.580;10.094;2023-04-06T12:26:46;12.30;22.30
7218;DHT22;3650;53.580;10.094;2023-04-06T12:29:13;12.40;20.70
7218;DHT22;3650;53.580;10.094;2023-04-06T12:31:40;12.40;21.50
7218;DHT22;3650;53.580;10.094;2023-04-06T12:34:08;12.50;20.80
7218;DHT22;3650;53.580;10.094;2023-04-06T12:36:37;12.50;20.60
7218;DHT22;3650;53.580;10.094;2023-04-06T12:39:05;12.50;21.80
7218;DHT22;3650;53.580;10.094;2023-04-06T12:41:32;12.60;21.60
7218;DHT22;3650;53.580;10.094;2023-04-06T12:44:01;12.70;21.40
7218;DHT22;3650;53.580;10.094;2023-04-06T12:46:28;12.70;20.80
7218;DHT22;3650;53.580;10.094;2023-04-06T12:48:56;12.80;20.30
7218;DHT22;3650;53.580;10.094;2023-04-06T12:51:24;12.80;21.20
7218;DHT22;3650;53.580;10.094;2023-04-06T12:53:52;12.90;20.80
7218;DHT22;3650;53.580;10.094;2023-04-06T12:56:19;12.90;20.50
7218;DHT22;3650;53.580;10.094;2023-04-06T12:58:46;13.00;20.60
7218;DHT22;3650;53.580;10.094;2023-04-06T13:01:15;13.00;21.50
7218;DHT22;3650;53.580;10.094;2023-04-06T13:03:42;13.00;23.10
7218;DHT22;3650;53.580;10.094;2023-04-06T13:06:09;13.10;22.60
7218;DHT22;3650;53.580;10.094;2023-04-06T13:08:36;13.20;19.90
7218;DHT22;3650;53.580;10.094;2023-04-06T13:11:04;13.20;21.40
7218;DHT22;3650;53.580;10.094;2023-04-06T13:13:33;13.30;20.10
7218;DHT22;3650;53.580;10.094;2023-04-06T13:16:02;13.30;20.10
7218;DHT22;3650;53.580;10.094;2023-04-06T13:18:31;13.40;20.10
7218;DHT22;3650;53.580;10.094;2023-04-06T13:20:59;13.50;20.00
7218;DHT22;3650;53.580;10.094;2023-04-06T13:23:26;13.50;21.50
7218;DHT22;3650;53.580;10.094;2023-04-06T13:25:58;13.60;20.00
7218;DHT22;3650;53.580;10.094;2023-04-06T13:28:26;13.70;20.00
7218;DHT22;3650;53.580;10.094;2023-04-06T13:30:53;13.70;19.50
7218;DHT22;3650;53.580;10.094;2023-04-06T13:33:20;13.70;19.60
7218;DHT22;3650;53.580;10.094;2023-04-06T13:35:49;13.70;20.30
7218;DHT22;3650;53.580;10.094;2023-04-06T13:38:16;13.70;21.20
7218;DHT22;3650;53.580;10.094;2023-04-06T13:40:43;13.70;20.10
7218;DHT22;3650;53.580;10.094;2023-04-06T13:43:10;13.80;19.40
7218;DHT22;3650;53.580;10.094;2023-04-06T13:45:37;13.80;18.90
7218;DHT22;3650;53.580;10.094;2023-04-06T13:48:04;13.90;19.40
7218;DHT22;3650;53.580;10.094;2023-04-06T13:50:32;13.90;20.80
7218;DHT22;3650;53.580;10.094;2023-04-06T13:53:00;13.90;20.30
7218;DHT22;3650;53.580;10.094;2023-04-06T13:55:27;13.90;20.50
7218;DHT22;3650;53.580;10.094;2023-04-06T13:57:54;13.90;19.80
7218;DHT22;3650;53.580;10.094;2023-04-06T14:00:21;13.90;19.60
7218;DHT22;3650;53.580;10.094;2023-04-06T14:02:49;13.90;19.80
7218;DHT22;3650;53.580;10.094;2023-04-06T14:05:16;13.90;19.60
7218;DHT22;3650;53.580;10.094;2023-04-06T14:07:43;13.90;19.60
7218;DHT22;3650;53.580;10.094;2023-04-06T14:10:11;13.90;19.90
7218;DHT22;3650;53.580;10.094;2023-04-06T14:12:40;13.90;19.50
7218;DHT22;3650;53.580;10.094;2023-04-06T14:15:09;13.90;19.00
7218;DHT22;3650;53.580;10.094;2023-04-06T14:17:36;13.90;19.00
7218;DHT22;3650;53.580;10.094;2023-04-06T14:20:03;13.90;19.40
7218;DHT22;3650;53.580;10.094;2023-04-06T14:22:30;13.90;19.20
7218;DHT22;3650;53.580;10.094;2023-04-06T14:24:57;13.80;18.90
7218;DHT22;3650;53.580;10.094;2023-04-06T14:27:25;13.80;19.20
7218;DHT22;3650;53.580;10.094;2023-04-06T14:29:53;13.70;20.90
7218;DHT22;3650;53.580;10.094;2023-04-06T14:32:20;13.70;20.00
7218;DHT22;3650;53.580;10.094;2023-04-06T14:34:47;13.70;19.70
7218;DHT22;3650;53.580;10.094;2023-04-06T14:37:13;13.70;19.70
7218;DHT22;3650;53.580;10.094;2023-04-06T14:39:40;13.70;19.40
7218;DHT22;3650;53.580;10.094;2023-04-06T14:42:07;13.70;19.90
7218;DHT22;3650;53.580;10.094;2023-04-06T14:44:35;13.70;19.70
7218;DHT22;3650;53.580;10.094;2023-04-06T14:47:04;13.60;19.60
7218;DHT22;3650;53.580;10.094;2023-04-06T14:49:31;13.60;19.50
7218;DHT22;3650;53.580;10.094;2023-04-06T14:51:59;13.60;19.90
7218;DHT22;3650;53.580;10.094;2023-04-06T14:54:26;13.60;19.40
7218;DHT22;3650;53.580;10.094;2023-04-06T14:56:52;13.60;19.60
7218;DHT22;3650;53.580;10.094;2023-04-06T14:59:21;13.50;19.70
7218;DHT22;3650;53.580;10.094;2023-04-06T15:01:49;13.50;19.80
7218;DHT22;3650;53.580;10.094;2023-04-06T15:04:16;13.50;19.90
7218;DHT22;3650;53.580;10.094;2023-04-06T15:06:43;13.50;20.00
7218;DHT22;3650;53.580;10.094;2023-04-06T15:09:10;13.50;19.50
7218;DHT22;3650;53.580;10.094;2023-04-06T15:11:37;13.50;19.30
7218;DHT22;3650;53.580;10.094;2023-04-06T15:14:05;13.50;19.20
7218;DHT22;3650;53.580;10.094;2023-04-06T15:16:32;13.50;20.00
7218;DHT22;3650;53.580;10.094;2023-04-06T15:19:00;13.50;19.60
7218;DHT22;3650;53.580;10.094;2023-04-06T15:21:27;13.40;19.80
7218;DHT22;3650;53.580;10.094;2023-04-06T15:23:55;13.40;19.50
7218;DHT22;3650;53.580;10.094;2023-04-06T15:26:22;13.50;19.50
7218;DHT22;3650;53.580;10.094;2023-04-06T15:28:49;13.50;19.00
7218;DHT22;3650;53.580;10.094;2023-04-06T15:31:16;13.40;19.10
7218;DHT22;3650;53.580;10.094;2023-04-06T15:33:43;13.40;20.60
7218;DHT22;3650;53.580;10.094;2023-04-06T15:36:22;13.40;19.30
7218;DHT22;3650;53.580;10.094;2023-04-06T15:38:50;13.40;20.50
7218;DHT22;3650;53.580;10.094;2023-04-06T15:41:16;13.40;19.40
7218;DHT22;3650;53.580;10.094;2023-04-06T15:43:43;13.40;19.30
7218;DHT22;3650;53.580;10.094;2023-04-06T15:46:10;13.40;19.50
7218;DHT22;3650;53.580;10.094;2023-04-06T15:48:37;13.40;19.60
7218;DHT22;3650;53.580;10.094;2023-04-06T15:51:04;13.40;19.80
7218;DHT22;3650;53.580;10.094;2023-04-06T15:53:32;13.40;19.40
7218;DHT22;3650;53.580;10.094;2023-04-06T15:55:59;13.40;19.60
7218;DHT22;3650;53.580;10.094;2023-04-06T15:58:27;13.40;19.70